createdAt,value
2022-10-18T00:03:29.944Z,27.5389
2022-10-18T00:18:31.824Z,27.854
2022-10-18T00:33:33.654Z,27.8478
2022-10-18T00:48:35.503Z,27.8998
2022-10-18T01:03:37.350Z,27.8249
2022-10-18T01:18:39.175Z,27.8639
2022-10-18T01:33:40.990Z,28.2248
2022-10-18T01:48:42.766Z,27.8868
2022-10-18T01:59:05.624Z,27.3055
2022-10-18T02:14:08.558Z,28.0527
2022-10-18T02:29:10.395Z,27.5946
2022-10-18T02:33:43.896Z,25.3895
2022-10-18T02:48:45.820Z,27.7537
2022-10-18T03:03:47.661Z,28.2601
2022-10-18T03:18:49.525Z,27.8738
2022-10-18T03:33:51.366Z,27.4968
2022-10-18T03:48:53.189Z,27.8088
2022-10-18T04:03:55.034Z,27.4287
2022-10-18T04:18:56.872Z,26.6778
2022-10-18T04:33:58.710Z,27.5067
2022-10-18T04:49:00.566Z,27.8998
2022-10-18T05:04:02.424Z,27.1526
2022-10-18T05:19:04.261Z,27.3377
2022-10-18T05:34:06.088Z,27.1037
2022-10-18T05:49:07.940Z,26.8666
2022-10-18T06:04:09.801Z,26.8567
2022-10-18T06:19:11.708Z,26.6716
2022-10-18T06:34:13.538Z,27.1848
2022-10-18T06:49:18.260Z,25.2639
2022-10-18T07:04:21.134Z,25.579
2022-10-18T07:19:22.980Z,24.5198
2022-10-18T07:34:24.821Z,25.202
2022-10-18T07:49:26.667Z,26.7069
2022-10-18T08:04:28.520Z,26.7849
2022-10-18T08:19:30.350Z,26.4958
2022-10-18T08:34:32.280Z,28.7027
2022-10-18T08:49:34.153Z,28.309
2022-10-18T09:04:35.986Z,26.5119
2022-10-18T09:19:37.835Z,25.15
2022-10-18T09:34:39.665Z,25.0621
2022-10-18T09:49:41.516Z,24.9222
2022-10-18T10:04:43.445Z,24.9451
2022-10-18T10:19:45.281Z,24.1942
2022-10-18T10:34:47.105Z,25.3054
2022-10-18T10:49:48.966Z,25.2243
2022-10-18T11:04:50.819Z,25.3834
2022-10-18T11:19:52.648Z,25.3444
2022-10-18T11:34:54.496Z,25.2144
2022-10-18T11:49:56.325Z,25.0714
2022-10-18T12:20:07.068Z,24.8504
2022-10-18T12:35:08.918Z,25.8576
2022-10-18T12:50:10.741Z,25.0646
2022-10-18T13:05:21.287Z,24.9247
2022-10-18T13:20:35.655Z,24.5545
2022-10-18T13:35:37.497Z,24.6127
2022-10-18T13:50:39.354Z,24.0054
2022-10-18T14:05:41.272Z,24.7588
2022-10-18T14:20:55.353Z,24.3236
2022-10-18T14:36:14.527Z,24.2846
2022-10-18T14:51:17.617Z,24.8919
2022-10-18T15:06:19.477Z,25.1036
2022-10-18T15:21:21.296Z,24.7817
2022-10-18T15:36:23.119Z,24.9216
2022-10-18T15:51:24.939Z,25.0516
2022-10-18T16:06:26.794Z,24.8925
2022-10-18T16:21:28.650Z,25.0386
2022-10-18T16:36:30.496Z,25.2887
2022-10-18T16:51:32.313Z,24.7495
2022-10-18T17:06:34.168Z,25.6304
2022-10-18T17:21:35.999Z,26.4005
2022-10-18T17:36:37.848Z,27.0963
2022-10-18T17:51:39.697Z,27.5612
2022-10-18T18:00:14.974Z,26.5806
2022-10-18T18:05:04.493Z,26.7397
2022-10-18T18:20:06.364Z,24.0834
2022-10-18T18:35:08.230Z,24.3013
2022-10-18T18:50:10.062Z,26.5441
2022-10-18T19:05:11.948Z,28.5232
2022-10-18T19:20:13.823Z,28.9039
2022-10-18T19:35:15.746Z,24.6003
2022-10-18T19:50:17.708Z,28.088
2022-10-18T20:05:19.565Z,28.9237
2022-10-18T20:20:21.381Z,29.1057
2022-10-18T20:35:23.188Z,29.8436
2022-10-18T20:50:25.052Z,30.2596
2022-10-18T21:05:27.136Z,29.7594
2022-10-18T21:20:28.967Z,30.4614
2022-10-18T21:35:30.873Z,30.2404
2022-10-18T21:50:32.705Z,30.8514
2022-10-18T22:05:34.538Z,28.2186
2022-10-18T22:20:36.394Z,29.8795
2022-10-18T22:35:38.266Z,30.0485
2022-10-18T22:50:40.111Z,30.3964
2022-10-18T23:05:41.988Z,30.6273
2022-10-18T23:20:43.826Z,30.7313
2022-10-18T23:35:45.685Z,30.6923
2022-10-18T23:50:47.530Z,30.6663
